Terminal Aerodrome Forecast
Issued by NWS

Home | Current Version | Previous Version | Text Only | Print | Product List | Glossary On
Versions: 1 2 3 4 5 6 7 8 9 10 11 12 13 14 15 16 17 18 19
657
FTAK31 PAJN 210642 AAA
TAFAYA
TAF AMD
PAYA 210642Z 2107/2206 VRB03KT P6SM VCFG FEW002 SCT200
      TEMPO 2107/2111 00000KT 1SM BR BKN002
     FM212000 08003KT P6SM SCT025 BKN120
      AMD LTD TO CLD VIS AND WIND=

USA.gov is the U.S. government's official web portal to all federal, state and local government web resources and services.